Time;durP1;ratioP1;P1;durP2;ratioP2;P2;SDS_P1;SDS_P2;PMS_P1;PMS_P2;Temp;Humidity;BMP_temperature;BMP_pressure;BME280_temperature;BME280_humidity;BME280_pressure;Samples;Min_cycle;Max_cycle;Signal;HPM_P1;HPM_P2
2021/08/28 00:02:23;;;;;;;5.15;2.28;;;;;;;;;;10393437;28;20034;-85
2021/08/28 00:30:48;;;;;;;4.95;2.30;;;;;;;;;;10061866;29;20515;-85
2021/08/28 00:41:53;;;;;;;4.07;2.13;;;;;;;;;;9947776;29;20043;-87
2021/08/28 00:52:59;;;;;;;4.18;2.00;;;;;;;;;;10000021;29;20116;-87
2021/08/28 01:04:12;;;;;;;4.40;3.03;;;;;;;;;;10138436;29;20093;-87
2021/08/28 01:09:44;;;;;;;4.68;2.70;;;;;;;;;;10276604;28;20038;-86
2021/08/28 01:43:31;;;;;;;3.50;2.63;;;;;;;;;;10269570;28;20050;-84
2021/08/28 02:11:29;;;;;;;4.95;2.80;;;;;;;;;;10345038;28;20034;-84
2021/08/28 02:39:31;;;;;;;4.70;3.40;;;;;;;;;;10341819;28;20038;-85
2021/08/28 02:56:19;;;;;;;6.72;4.00;;;;;;;;;;10350327;28;20049;-85
2021/08/28 03:01:45;;;;;;;8.45;4.57;;;;;;;;;;10367813;28;20045;-85
2021/08/28 03:13:29;;;;;;;8.32;4.50;;;;;;;;;;10273726;29;20039;-87
2021/08/28 03:47:55;;;;;;;7.25;4.05;;;;;;;;;;10397496;28;20025;-86
2021/08/28 03:53:31;;;;;;;8.00;5.35;;;;;;;;;;10332933;28;20038;-86
2021/08/28 04:09:22;;;;;;;6.55;4.63;;;;;;;;;;10296879;28;20138;-86
2021/08/28 04:14:23;;;;;;;5.75;3.38;;;;;;;;;;10279386;28;20039;-86
2021/08/28 04:19:23;;;;;;;7.45;4.43;;;;;;;;;;10295592;28;20046;-86
2021/08/28 04:24:24;;;;;;;4.60;4.03;;;;;;;;;;10295614;28;20130;-86
2021/08/28 04:29:25;;;;;;;3.47;2.75;;;;;;;;;;10296016;28;20039;-86
2021/08/28 04:34:26;;;;;;;4.10;3.28;;;;;;;;;;10309792;28;20098;-86
2021/08/28 04:39:27;;;;;;;3.97;3.53;;;;;;;;;;10295709;28;20039;-86
2021/08/28 04:44:28;;;;;;;4.10;3.70;;;;;;;;;;10296168;28;20373;-86
2021/08/28 04:49:29;;;;;;;3.42;3.03;;;;;;;;;;10297356;28;20094;-86
2021/08/28 04:54:31;;;;;;;4.13;3.38;;;;;;;;;;10294335;28;20030;-86
2021/08/28 04:59:32;;;;;;;3.03;2.72;;;;;;;;;;10294468;28;20125;-86
2021/08/28 05:04:36;;;;;;;4.38;2.85;;;;;;;;;;10295935;28;20133;-86
2021/08/28 05:09:46;;;;;;;5.38;3.58;;;;;;;;;;10296411;28;20066;-87
2021/08/28 05:15:25;;;;;;;3.80;3.15;;;;;;;;;;10296439;28;20035;-87
2021/08/28 05:20:45;;;;;;;4.25;2.70;;;;;;;;;;10291803;28;20026;-86
2021/08/28 05:25:46;;;;;;;3.70;3.30;;;;;;;;;;10295982;28;20409;-86
2021/08/28 05:30:47;;;;;;;3.85;2.65;;;;;;;;;;10294999;28;20039;-86
2021/08/28 05:35:48;;;;;;;4.50;3.53;;;;;;;;;;10324730;28;20045;-86
2021/08/28 05:40:49;;;;;;;3.95;3.45;;;;;;;;;;10295245;28;20042;-86
2021/08/28 05:45:50;;;;;;;5.07;3.20;;;;;;;;;;10292929;28;20350;-86
2021/08/28 05:50:51;;;;;;;2.95;2.65;;;;;;;;;;10293134;28;20097;-86
2021/08/28 05:55:53;;;;;;;2.83;2.38;;;;;;;;;;10277971;28;20105;-86
2021/08/28 06:00:54;;;;;;;4.28;2.97;;;;;;;;;;10294699;28;20035;-88
2021/08/28 06:05:55;;;;;;;5.20;4.43;;;;;;;;;;10294499;28;20045;-85
2021/08/28 06:10:56;;;;;;;3.72;2.92;;;;;;;;;;10294570;28;20035;-87
2021/08/28 06:15:57;;;;;;;3.58;2.22;;;;;;;;;;10292607;28;20496;-85
2021/08/28 06:21:01;;;;;;;2.50;1.77;;;;;;;;;;10293239;28;20035;-88
2021/08/28 06:26:07;;;;;;;4.30;3.47;;;;;;;;;;10296134;28;20404;-88
2021/08/28 06:31:23;;;;;;;3.50;2.53;;;;;;;;;;10307028;28;20045;-87
2021/08/28 06:36:24;;;;;;;4.47;3.35;;;;;;;;;;10293917;28;20046;-86
2021/08/28 06:41:44;;;;;;;5.90;4.90;;;;;;;;;;10293348;28;20129;-86
2021/08/28 06:46:45;;;;;;;7.90;5.60;;;;;;;;;;10293252;28;20134;-86
2021/08/28 06:51:46;;;;;;;4.85;3.85;;;;;;;;;;10294652;28;20127;-86
2021/08/28 06:56:47;;;;;;;5.78;4.40;;;;;;;;;;10300314;28;20042;-86
2021/08/28 07:01:48;;;;;;;3.20;2.28;;;;;;;;;;10317399;28;20034;-82
2021/08/28 07:06:49;;;;;;;4.47;3.10;;;;;;;;;;10336697;28;20046;-85
2021/08/28 07:11:51;;;;;;;3.53;2.65;;;;;;;;;;10328714;28;20114;-86
2021/08/28 07:16:52;;;;;;;3.22;2.58;;;;;;;;;;10324983;28;20042;-85
2021/08/28 07:21:53;;;;;;;8.18;4.03;;;;;;;;;;10324094;28;20049;-85
2021/08/28 07:26:54;;;;;;;6.13;3.90;;;;;;;;;;10323928;28;20050;-85
2021/08/28 07:31:55;;;;;;;5.20;3.97;;;;;;;;;;10325502;28;20043;-85
2021/08/28 07:36:56;;;;;;;6.60;3.58;;;;;;;;;;10304029;28;20026;-85
2021/08/28 07:41:57;;;;;;;5.07;3.00;;;;;;;;;;10302345;28;20039;-84
2021/08/28 07:46:58;;;;;;;4.95;3.17;;;;;;;;;;10303275;28;20516;-87
2021/08/28 07:52:14;;;;;;;5.55;4.43;;;;;;;;;;10302019;28;20043;-88
2021/08/28 07:57:15;;;;;;;6.85;4.95;;;;;;;;;;10298433;28;20082;-87
2021/08/28 08:02:51;;;;;;;8.55;4.78;;;;;;;;;;10297532;28;20038;-88
2021/08/28 08:07:54;;;;;;;6.53;4.95;;;;;;;;;;10298334;28;20110;-87
2021/08/28 08:13:04;;;;;;;6.47;4.57;;;;;;;;;;10299963;28;20034;-87
2021/08/28 11:42:46;;;;;;;5.35;3.45;;;;;;;;;;10389197;28;20064;-89
2021/08/28 11:47:47;;;;;;;6.43;3.10;;;;;;;;;;10385765;28;20030;-84
2021/08/28 11:52:56;;;;;;;4.50;3.50;;;;;;;;;;10385684;28;20507;-88
2021/08/28 11:58:14;;;;;;;6.03;4.57;;;;;;;;;;10403884;28;20080;-87
2021/08/28 12:03:16;;;;;;;3.97;3.58;;;;;;;;;;10420698;28;20041;-88
2021/08/28 12:08:18;;;;;;;4.88;4.30;;;;;;;;;;10416478;28;20038;-88
2021/08/28 12:13:20;;;;;;;6.43;3.95;;;;;;;;;;10385152;28;20041;-88
2021/08/28 12:18:27;;;;;;;4.45;3.88;;;;;;;;;;10379073;28;20037;-88
2021/08/28 12:23:29;;;;;;;5.53;4.03;;;;;;;;;;10381029;28;20069;-88
2021/08/28 12:28:30;;;;;;;6.50;4.40;;;;;;;;;;10380852;28;20111;-87
2021/08/28 12:33:31;;;;;;;4.78;4.10;;;;;;;;;;10397617;28;20069;-87
2021/08/28 12:38:33;;;;;;;5.13;4.32;;;;;;;;;;10380391;28;20041;-88
2021/08/28 12:43:33;;;;;;;4.90;4.40;;;;;;;;;;10378231;28;20033;-88
2021/08/28 12:48:35;;;;;;;5.40;3.92;;;;;;;;;;10376560;28;20034;-88
2021/08/28 12:53:39;;;;;;;4.25;3.20;;;;;;;;;;10377034;28;20109;-88
2021/08/28 12:58:41;;;;;;;4.00;3.25;;;;;;;;;;10376714;28;20610;-87
2021/08/28 13:03:47;;;;;;;3.88;2.90;;;;;;;;;;10377029;28;20038;-87
2021/08/28 13:08:49;;;;;;;3.42;2.70;;;;;;;;;;10378031;28;20034;-87
2021/08/28 13:14:03;;;;;;;3.38;2.50;;;;;;;;;;10377766;28;20030;-87
2021/08/28 13:19:15;;;;;;;3.13;2.35;;;;;;;;;;10395868;28;20128;-87
2021/08/28 13:24:17;;;;;;;4.63;3.75;;;;;;;;;;10376685;28;20049;-87
2021/08/28 13:29:25;;;;;;;3.45;2.00;;;;;;;;;;10376208;28;20034;-87
2021/08/28 13:34:26;;;;;;;2.30;1.88;;;;;;;;;;10379879;28;20034;-88
2021/08/28 13:39:30;;;;;;;2.60;2.17;;;;;;;;;;10374327;28;20107;-87
2021/08/28 13:44:32;;;;;;;1.65;1.40;;;;;;;;;;10374389;28;20137;-88
2021/08/28 13:49:33;;;;;;;3.03;1.48;;;;;;;;;;10376703;28;20065;-88
2021/08/28 13:54:34;;;;;;;1.17;1.00;;;;;;;;;;10378035;28;20060;-87
2021/08/28 13:59:35;;;;;;;0.98;0.75;;;;;;;;;;10375700;28;20037;-88
2021/08/28 14:04:51;;;;;;;1.60;1.30;;;;;;;;;;10378742;28;20030;-87
2021/08/28 14:09:52;;;;;;;2.33;0.90;;;;;;;;;;10380583;28;20045;-86
2021/08/28 14:14:53;;;;;;;1.33;0.90;;;;;;;;;;10382049;28;20032;-86
2021/08/28 14:19:54;;;;;;;1.88;1.20;;;;;;;;;;10382448;28;20041;-86
2021/08/28 14:24:55;;;;;;;1.02;0.90;;;;;;;;;;10378969;28;20034;-86
2021/08/28 14:29:56;;;;;;;1.38;0.98;;;;;;;;;;10383356;28;20069;-85
2021/08/28 14:35:00;;;;;;;2.20;1.30;;;;;;;;;;10401065;28;20046;-85
2021/08/28 14:40:01;;;;;;;2.28;1.60;;;;;;;;;;10384363;28;20132;-87
2021/08/28 14:45:03;;;;;;;1.27;1.17;;;;;;;;;;10376890;28;20080;-87
2021/08/28 14:50:05;;;;;;;1.70;1.60;;;;;;;;;;10378681;28;20041;-87
2021/08/28 14:55:06;;;;;;;2.88;1.80;;;;;;;;;;10385056;28;20034;-89
2021/08/28 15:00:08;;;;;;;1.50;1.13;;;;;;;;;;10382588;28;20033;-87
2021/08/28 15:05:09;;;;;;;1.67;1.30;;;;;;;;;;10382372;28;20045;-86
2021/08/28 15:10:10;;;;;;;2.13;1.10;;;;;;;;;;10388139;28;20078;-86
2021/08/28 15:15:11;;;;;;;2.58;1.50;;;;;;;;;;10392913;28;20095;-87
2021/08/28 15:20:12;;;;;;;2.40;1.60;;;;;;;;;;10391801;28;20439;-85
2021/08/28 15:25:13;;;;;;;2.90;1.63;;;;;;;;;;10383227;28;20419;-86
2021/08/28 15:30:15;;;;;;;2.28;1.67;;;;;;;;;;10386041;28;20038;-86
2021/08/28 15:35:16;;;;;;;1.98;1.40;;;;;;;;;;10391230;28;20124;-86
2021/08/28 15:40:19;;;;;;;1.85;1.42;;;;;;;;;;10387133;28;20069;-86
2021/08/28 15:45:20;;;;;;;3.13;1.40;;;;;;;;;;10423008;28;20042;-88
2021/08/28 15:50:21;;;;;;;3.13;1.58;;;;;;;;;;10424440;28;20060;-85
2021/08/28 15:55:22;;;;;;;2.80;1.60;;;;;;;;;;10418563;28;20384;-88
2021/08/28 16:00:23;;;;;;;2.63;1.45;;;;;;;;;;10384984;28;20030;-86
2021/08/28 22:14:51;;;;;;;2.25;1.55;;;;;;;;;;10375217;28;20049;-86
2021/08/28 22:19:53;;;;;;;3.95;2.10;;;;;;;;;;10384885;28;20065;-86
2021/08/28 22:25:01;;;;;;;2.65;1.90;;;;;;;;;;10363115;28;20073;-86
2021/08/28 22:30:34;;;;;;;4.20;2.28;;;;;;;;;;10381160;28;20041;-86
2021/08/28 22:35:35;;;;;;;3.92;2.40;;;;;;;;;;10365937;28;20053;-86
2021/08/28 22:40:38;;;;;;;2.90;1.55;;;;;;;;;;10378662;28;20092;-86
2021/08/28 22:45:39;;;;;;;3.00;1.80;;;;;;;;;;10368460;28;20056;-86
2021/08/28 22:50:40;;;;;;;2.88;1.80;;;;;;;;;;10376519;28;20200;-85
2021/08/28 22:55:41;;;;;;;4.57;2.35;;;;;;;;;;10380538;28;20057;-85
2021/08/28 23:00:42;;;;;;;4.32;2.28;;;;;;;;;;10397857;28;20076;-85
2021/08/28 23:05:43;;;;;;;4.13;2.10;;;;;;;;;;10393855;28;20042;-85
2021/08/28 23:10:47;;;;;;;2.80;1.90;;;;;;;;;;10407589;28;20054;-86
2021/08/28 23:15:48;;;;;;;2.15;1.40;;;;;;;;;;10370875;28;20124;-86
2021/08/28 23:20:49;;;;;;;1.63;1.30;;;;;;;;;;10368234;28;20081;-85
2021/08/28 23:25:53;;;;;;;3.03;1.98;;;;;;;;;;10366790;28;20510;-85
2021/08/28 23:30:54;;;;;;;3.28;2.10;;;;;;;;;;10366124;28;20038;-85
2021/08/28 23:35:55;;;;;;;3.28;2.08;;;;;;;;;;10364386;28;20104;-87
2021/08/28 23:40:56;;;;;;;4.45;2.60;;;;;;;;;;10363642;28;20038;-85
2021/08/28 23:45:57;;;;;;;2.83;2.10;;;;;;;;;;10365080;28;20404;-85
2021/08/28 23:50:58;;;;;;;3.60;2.35;;;;;;;;;;10364971;28;20133;-85
2021/08/28 23:55:59;;;;;;;4.50;3.00;;;;;;;;;;10365140;28;20038;-85
